(°C)
(°C)
-4°
-4°
-3°
-3°
-2°
-2°
-2°
DDN
DDN
DDN
DDN
DDN
DDN
DDN
(km/h)
22-36
20-35
18-31
17-30
16-28
16-26
15-25
(mm)
0
0
0
0
0
0
0
(%)
13
6
6
1
1
0
0

Napfelkelte

/ -60.3°
sun-icon
UV 0
08:07
16:17
Hold (fogyó sarló) (348°)
06:45
15:32

METAR 51.82°É 39.23°K (UUOO)-ért

Idő Feltételek Hőmérséklet/
Harmatpont
Szél Látási viszonyok Időjárás Felhők Légnyomás Módosítás Nyers
IFR 2°C / 0°C 200º 12kt >10km - Overcast 900ft 1004 No Significant change. Runway 12: Wet snow, 1-10% contamination with 3mm, friction coefficient 0.61. UUOO 022100Z 20006MPS 9999 OVC009 02/00 Q1004 R12/510361 NOSIG RMK QFE739
MVFR 2°C / 0°C 190º 14kt >10km - Overcast 1000ft 1004 No Significant change. Runway 12: Wet snow, 1-10% contamination with 3mm, friction coefficient 0.61. UUOO 022030Z 19007MPS 9999 OVC010 02/00 Q1004 R12/510361 NOSIG RMK QFE739
IFR 2°C / 0°C 200º 12kt Gust 21kt >10km - Overcast 900ft 1004 No Significant change. Runway 12: Wet snow, 1-10% contamination with 3mm, friction coefficient 0.61. UUOO 022000Z 20006G11MPS 9999 OVC009 02/M00 Q1004 R12/510361 NOSIG RMK QFE739
MVFR 2°C / -1°C 200º 12kt >10km - Overcast 1000ft 1004 No Significant change. Runway 12: Wet snow, 26-50% contamination with 5mm, friction coefficient 0.40. UUOO 021930Z 20006MPS 9999 OVC010 02/M01 Q1004 R12/550540 NOSIG RMK QFE739
MVFR 1°C / -1°C 190º 12kt >10km - Overcast 1100ft 1005 No Significant change. Runway 12: Wet snow, 26-50% contamination with 5mm, friction coefficient 0.40. UUOO 021900Z 19006MPS 9999 OVC011 01/M01 Q1005 R12/550540 NOSIG RMK QFE739
MVFR 1°C / -2°C 210º 12kt >10km Light Snow Light Rain 1.00mm precipitation Vertical Visibility of 0ft. 1005 No Significant change. Runway 12: Wet snow, 26-50% contamination with 5mm, friction coefficient 0.40. UUOO 021830Z 21006MPS 9999 -SNRA OVC012 01/M02 Q1005 R12/550540 NOSIG RMK QFE740
MVFR 0°C / -2°C 200º 10kt >10km Light Snow Light Rain 1.00mm precipitation Vertical Visibility of 0ft. 1005 No Significant change. Runway 12: Wet snow, 26-50% contamination with 5mm, friction coefficient 0.40. UUOO 021800Z 20005MPS 9999 -SNRA OVC014 00/M02 Q1005 R12/550540 NOSIG RMK QFE740
MVFR -1°C / -2°C 190º 12kt 9000m Light Snow 1.00mm precipitation Vertical Visibility of 0ft. 1005 Temporary: Visibility 1000. Snow . RMK QFE740 . Runway 12: Wet snow, 51-100% contamination with 5mm, friction coefficient 0.32. UUOO 021730Z 19006MPS 9000 -SN OVC016 M01/M02 Q1005 R12/590532 TEMPO 1000 SN RMK QFE740
LIFR -1°C / -2°C 190º 10kt 1700m. Runway 12: Visual range is 2000m and increasing. Snow 3.00mm precipitation Vertical Visibility of 0ft. 1005 Temporary: Visibility 1000. Snow . RMK QFE740 . Runway 12: Wet snow, 51-100% contamination with 5mm, friction coefficient 0.32. UUOO 021700Z 19005MPS 1700 1400SE R12/P2000U SN OVC004 M01/M02 Q1005 R12/590532 TEMPO 1000 SN RMK QFE740
LIFR -1°C / -3°C 180º 8kt 2200m Light Snow 1.00mm precipitation Vertical Visibility of 0ft. 1006 Temporary: Visibility 1000. Snow . RMK QFE740 . Runway 12: Wet snow, 26-50% contamination with 2mm, friction coefficient 0.57. UUOO 021630Z 18004MPS 2200 -SN OVC004 M01/M03 Q1006 R12/550257 TEMPO 1000 SN RMK QFE740
IFR -2°C / -4°C 180º 10kt 2800m Light Snow 1.00mm precipitation Vertical Visibility of 0ft. 1006 Temporary: Visibility 1000. Snow . Overcast 300ft. RMK QFE740 . Runway 12: Damp, 51-100% contamination with <1mm, friction coefficient 0.60. UUOO 021600Z 18005MPS 2800 -SN OVC005 M02/M04 Q1006 R12/190060 TEMPO 1000 SN OVC003 RMK QFE740
IFR -1°C / -6°C 180º 14kt 6000m Light Snow 1.00mm precipitation Vertical Visibility of 0ft. 1006 Temporary: Visibility 1000. Snow . Overcast 300ft. RMK QFE740 . Runway 12: Damp, 51-100% contamination with <1mm, friction coefficient 0.60. UUOO 021530Z 18007MPS 6000 -SN OVC008 M01/M06 Q1006 R12/190060 TEMPO 1000 SN OVC003 RMK QFE740
MVFR -1°C / -7°C 170º 10kt >10km Light Snow 1.00mm precipitation Vertical Visibility of 0ft. 1006 No Significant change. Runway 12: Damp, 51-100% contamination with <1mm, friction coefficient 0.60. UUOO 021500Z 17005MPS 9999 -SN OVC012 M01/M07 Q1006 R12/190060 NOSIG RMK QFE740
MVFR -1°C / -7°C 170º 10kt >10km - Broken Clouds 1600ft 1006 No Significant change. Runway 12: Damp, 51-100% contamination with <1mm, friction coefficient 0.60. UUOO 021430Z 17005MPS 9999 BKN016 M01/M07 Q1006 R12/190060 NOSIG RMK QFE740
MVFR -1°C / -7°C 170º 8kt >10km - Broken Clouds 2600ft 1006 No Significant change. Runway 12: Damp, 51-100% contamination with <1mm, friction coefficient 0.60. UUOO 021400Z 17004MPS 9999 BKN026 M01/M07 Q1006 R12/190060 NOSIG RMK QFE741
VFR -2°C / -7°C 180º 8kt >10km - Broken Clouds 4800ft 1006 No Significant change. Runway 12: Damp, 51-100% contamination with <1mm, friction coefficient 0.60. UUOO 021330Z 18004MPS 9999 BKN048 M02/M07 Q1006 R12/190060 NOSIG RMK QFE741
MVFR -1°C / -8°C 190º 8kt >10km - Broken Clouds 1400ft 1006 No Significant change. Runway 30: Damp, 51-100% contamination with <1mm, friction coefficient 0.60. UUOO 021300Z 19004MPS 9999 BKN014 M01/M08 Q1006 R30/190060 NOSIG RMK QFE741
VFR -1°C / -7°C 200º 8kt >10km - Broken Clouds 3900ft 1007 No Significant change. Runway 30: Damp, 51-100% contamination with <1mm, friction coefficient 0.60. UUOO 021230Z 20004MPS 9999 BKN039 M01/M07 Q1007 R30/190060 NOSIG RMK QFE742
VFR -1°C / -7°C 210º variable 170º to 240º 8kt >10km - Clouds and Visibility OK 1007 No Significant change. Runway 30: Damp, 51-100% contamination with <1mm, friction coefficient 0.60. UUOO 021200Z 21004MPS 170V240 CAVOK M01/M07 Q1007 R30/190060 NOSIG RMK QFE742
VFR -1°C / -7°C 220º 8kt >10km - Clouds and Visibility OK 1007 No Significant change. Runway 30: Damp, 51-100% contamination with <1mm, friction coefficient 0.60. UUOO 021130Z 22004MPS CAVOK M01/M07 Q1007 R30/190060 NOSIG RMK QFE742
VFR -1°C / -8°C 220º 8kt >10km - Clouds and Visibility OK 1007 No Significant change. Runway 30: Damp, 51-100% contamination with <1mm, friction coefficient 0.60. UUOO 021100Z 22004MPS CAVOK M01/M08 Q1007 R30/190060 NOSIG RMK QFE742
VFR -1°C / -8°C 230º 8kt >10km - Scattered Clouds 3100ft 1007 No Significant change. Runway 30: Damp, 51-100% contamination with <1mm, friction coefficient 0.60. UUOO 021030Z 23004MPS 9999 SCT031 M01/M08 Q1007 R30/190060 NOSIG RMK QFE742
VFR -1°C / -8°C 210º 8kt >10km - Clouds and Visibility OK 1007 No Significant change. Runway 30: Damp, 51-100% contamination with <1mm, friction coefficient 0.60. UUOO 021000Z 21004MPS CAVOK M01/M08 Q1007 R30/190060 NOSIG RMK QFE742
VFR -1°C / -9°C 220º 8kt >10km - Clouds and Visibility OK 1007 No Significant change. Runway 30: Damp, 51-100% contamination with <1mm, friction coefficient 0.60. UUOO 020930Z 22004MPS CAVOK M01/M09 Q1007 R30/190060 NOSIG RMK QFE742

IFR

2°C / 0°C

[Több]
Szél 200º 12kt
Látási viszonyok >10km
Időjárás -
Felhők Overcast 900ft
Légnyomás 1004
Módosítás No Significant change. Runway 12: Wet snow, 1-10% contamination with 3mm, friction coefficient 0.61.
Nyers UUOO 022100Z 20006MPS 9999 OVC009 02/00 Q1004 R12/510361 NOSIG RMK QFE739

MVFR

2°C / 0°C

[Több]
Szél 190º 14kt
Látási viszonyok >10km
Időjárás -
Felhők Overcast 1000ft
Légnyomás 1004
Módosítás No Significant change. Runway 12: Wet snow, 1-10% contamination with 3mm, friction coefficient 0.61.
Nyers UUOO 022030Z 19007MPS 9999 OVC010 02/00 Q1004 R12/510361 NOSIG RMK QFE739

IFR

2°C / 0°C

[Több]
Szél 200º 12kt Gust 21kt
Látási viszonyok >10km
Időjárás -
Felhők Overcast 900ft
Légnyomás 1004
Módosítás No Significant change. Runway 12: Wet snow, 1-10% contamination with 3mm, friction coefficient 0.61.
Nyers UUOO 022000Z 20006G11MPS 9999 OVC009 02/M00 Q1004 R12/510361 NOSIG RMK QFE739

MVFR

2°C / -1°C

[Több]
Szél 200º 12kt
Látási viszonyok >10km
Időjárás -
Felhők Overcast 1000ft
Légnyomás 1004
Módosítás No Significant change. Runway 12: Wet snow, 26-50% contamination with 5mm, friction coefficient 0.40.
Nyers UUOO 021930Z 20006MPS 9999 OVC010 02/M01 Q1004 R12/550540 NOSIG RMK QFE739

MVFR

1°C / -1°C

[Több]
Szél 190º 12kt
Látási viszonyok >10km
Időjárás -
Felhők Overcast 1100ft
Légnyomás 1005
Módosítás No Significant change. Runway 12: Wet snow, 26-50% contamination with 5mm, friction coefficient 0.40.
Nyers UUOO 021900Z 19006MPS 9999 OVC011 01/M01 Q1005 R12/550540 NOSIG RMK QFE739

MVFR

1°C / -2°C

[Több]
Szél 210º 12kt
Látási viszonyok >10km
Időjárás Light Snow Light Rain 1.00mm precipitation
Felhők Vertical Visibility of 0ft.
Légnyomás 1005
Módosítás No Significant change. Runway 12: Wet snow, 26-50% contamination with 5mm, friction coefficient 0.40.
Nyers UUOO 021830Z 21006MPS 9999 -SNRA OVC012 01/M02 Q1005 R12/550540 NOSIG RMK QFE740

MVFR

0°C / -2°C

[Több]
Szél 200º 10kt
Látási viszonyok >10km
Időjárás Light Snow Light Rain 1.00mm precipitation
Felhők Vertical Visibility of 0ft.
Légnyomás 1005
Módosítás No Significant change. Runway 12: Wet snow, 26-50% contamination with 5mm, friction coefficient 0.40.
Nyers UUOO 021800Z 20005MPS 9999 -SNRA OVC014 00/M02 Q1005 R12/550540 NOSIG RMK QFE740

MVFR

-1°C / -2°C

[Több]
Szél 190º 12kt
Látási viszonyok 9000m
Időjárás Light Snow 1.00mm precipitation
Felhők Vertical Visibility of 0ft.
Légnyomás 1005
Módosítás Temporary: Visibility 1000. Snow . RMK QFE740 . Runway 12: Wet snow, 51-100% contamination with 5mm, friction coefficient 0.32.
Nyers UUOO 021730Z 19006MPS 9000 -SN OVC016 M01/M02 Q1005 R12/590532 TEMPO 1000 SN RMK QFE740

LIFR

-1°C / -2°C

[Több]
Szél 190º 10kt
Látási viszonyok 1700m. Runway 12: Visual range is 2000m and increasing.
Időjárás Snow 3.00mm precipitation
Felhők Vertical Visibility of 0ft.
Légnyomás 1005
Módosítás Temporary: Visibility 1000. Snow . RMK QFE740 . Runway 12: Wet snow, 51-100% contamination with 5mm, friction coefficient 0.32.
Nyers UUOO 021700Z 19005MPS 1700 1400SE R12/P2000U SN OVC004 M01/M02 Q1005 R12/590532 TEMPO 1000 SN RMK QFE740

LIFR

-1°C / -3°C

[Több]
Szél 180º 8kt
Látási viszonyok 2200m
Időjárás Light Snow 1.00mm precipitation
Felhők Vertical Visibility of 0ft.
Légnyomás 1006
Módosítás Temporary: Visibility 1000. Snow . RMK QFE740 . Runway 12: Wet snow, 26-50% contamination with 2mm, friction coefficient 0.57.
Nyers UUOO 021630Z 18004MPS 2200 -SN OVC004 M01/M03 Q1006 R12/550257 TEMPO 1000 SN RMK QFE740

IFR

-2°C / -4°C

[Több]
Szél 180º 10kt
Látási viszonyok 2800m
Időjárás Light Snow 1.00mm precipitation
Felhők Vertical Visibility of 0ft.
Légnyomás 1006
Módosítás Temporary: Visibility 1000. Snow . Overcast 300ft. RMK QFE740 . Runway 12: Damp, 51-100% contamination with <1mm, friction coefficient 0.60.
Nyers UUOO 021600Z 18005MPS 2800 -SN OVC005 M02/M04 Q1006 R12/190060 TEMPO 1000 SN OVC003 RMK QFE740

IFR

-1°C / -6°C

[Több]
Szél 180º 14kt
Látási viszonyok 6000m
Időjárás Light Snow 1.00mm precipitation
Felhők Vertical Visibility of 0ft.
Légnyomás 1006
Módosítás Temporary: Visibility 1000. Snow . Overcast 300ft. RMK QFE740 . Runway 12: Damp, 51-100% contamination with <1mm, friction coefficient 0.60.
Nyers UUOO 021530Z 18007MPS 6000 -SN OVC008 M01/M06 Q1006 R12/190060 TEMPO 1000 SN OVC003 RMK QFE740

MVFR

-1°C / -7°C

[Több]
Szél 170º 10kt
Látási viszonyok >10km
Időjárás Light Snow 1.00mm precipitation
Felhők Vertical Visibility of 0ft.
Légnyomás 1006
Módosítás No Significant change. Runway 12: Damp, 51-100% contamination with <1mm, friction coefficient 0.60.
Nyers UUOO 021500Z 17005MPS 9999 -SN OVC012 M01/M07 Q1006 R12/190060 NOSIG RMK QFE740

MVFR

-1°C / -7°C

[Több]
Szél 170º 10kt
Látási viszonyok >10km
Időjárás -
Felhők Broken Clouds 1600ft
Légnyomás 1006
Módosítás No Significant change. Runway 12: Damp, 51-100% contamination with <1mm, friction coefficient 0.60.
Nyers UUOO 021430Z 17005MPS 9999 BKN016 M01/M07 Q1006 R12/190060 NOSIG RMK QFE740

MVFR

-1°C / -7°C

[Több]
Szél 170º 8kt
Látási viszonyok >10km
Időjárás -
Felhők Broken Clouds 2600ft
Légnyomás 1006
Módosítás No Significant change. Runway 12: Damp, 51-100% contamination with <1mm, friction coefficient 0.60.
Nyers UUOO 021400Z 17004MPS 9999 BKN026 M01/M07 Q1006 R12/190060 NOSIG RMK QFE741

VFR

-2°C / -7°C

[Több]
Szél 180º 8kt
Látási viszonyok >10km
Időjárás -
Felhők Broken Clouds 4800ft
Légnyomás 1006
Módosítás No Significant change. Runway 12: Damp, 51-100% contamination with <1mm, friction coefficient 0.60.
Nyers UUOO 021330Z 18004MPS 9999 BKN048 M02/M07 Q1006 R12/190060 NOSIG RMK QFE741

MVFR

-1°C / -8°C

[Több]
Szél 190º 8kt
Látási viszonyok >10km
Időjárás -
Felhők Broken Clouds 1400ft
Légnyomás 1006
Módosítás No Significant change. Runway 30: Damp, 51-100% contamination with <1mm, friction coefficient 0.60.
Nyers UUOO 021300Z 19004MPS 9999 BKN014 M01/M08 Q1006 R30/190060 NOSIG RMK QFE741

VFR

-1°C / -7°C

[Több]
Szél 200º 8kt
Látási viszonyok >10km
Időjárás -
Felhők Broken Clouds 3900ft
Légnyomás 1007
Módosítás No Significant change. Runway 30: Damp, 51-100% contamination with <1mm, friction coefficient 0.60.
Nyers UUOO 021230Z 20004MPS 9999 BKN039 M01/M07 Q1007 R30/190060 NOSIG RMK QFE742

VFR

-1°C / -7°C

[Több]
Szél 210º variable 170º to 240º 8kt
Látási viszonyok >10km
Időjárás -
Felhők Clouds and Visibility OK
Légnyomás 1007
Módosítás No Significant change. Runway 30: Damp, 51-100% contamination with <1mm, friction coefficient 0.60.
Nyers UUOO 021200Z 21004MPS 170V240 CAVOK M01/M07 Q1007 R30/190060 NOSIG RMK QFE742

VFR

-1°C / -7°C

[Több]
Szél 220º 8kt
Látási viszonyok >10km
Időjárás -
Felhők Clouds and Visibility OK
Légnyomás 1007
Módosítás No Significant change. Runway 30: Damp, 51-100% contamination with <1mm, friction coefficient 0.60.
Nyers UUOO 021130Z 22004MPS CAVOK M01/M07 Q1007 R30/190060 NOSIG RMK QFE742

VFR

-1°C / -8°C

[Több]
Szél 220º 8kt
Látási viszonyok >10km
Időjárás -
Felhők Clouds and Visibility OK
Légnyomás 1007
Módosítás No Significant change. Runway 30: Damp, 51-100% contamination with <1mm, friction coefficient 0.60.
Nyers UUOO 021100Z 22004MPS CAVOK M01/M08 Q1007 R30/190060 NOSIG RMK QFE742

VFR

-1°C / -8°C

[Több]
Szél 230º 8kt
Látási viszonyok >10km
Időjárás -
Felhők Scattered Clouds 3100ft
Légnyomás 1007
Módosítás No Significant change. Runway 30: Damp, 51-100% contamination with <1mm, friction coefficient 0.60.
Nyers UUOO 021030Z 23004MPS 9999 SCT031 M01/M08 Q1007 R30/190060 NOSIG RMK QFE742

VFR

-1°C / -8°C

[Több]
Szél 210º 8kt
Látási viszonyok >10km
Időjárás -
Felhők Clouds and Visibility OK
Légnyomás 1007
Módosítás No Significant change. Runway 30: Damp, 51-100% contamination with <1mm, friction coefficient 0.60.
Nyers UUOO 021000Z 21004MPS CAVOK M01/M08 Q1007 R30/190060 NOSIG RMK QFE742

VFR

-1°C / -9°C

[Több]
Szél 220º 8kt
Látási viszonyok >10km
Időjárás -
Felhők Clouds and Visibility OK
Légnyomás 1007
Módosítás No Significant change. Runway 30: Damp, 51-100% contamination with <1mm, friction coefficient 0.60.
Nyers UUOO 020930Z 22004MPS CAVOK M01/M09 Q1007 R30/190060 NOSIG RMK QFE742

TAF 51.82°É 39.23°K (UUOO)-ért

From till


From till Wind 190º 10kt. Visibility 10km or more. Broken Clouds 1000ft.

Nyers: TAF UUOO 022000Z 0221/0306 19005MPS 9999 BKN010

Radarkép és ultrarövid távú csapadék-előrejelzés a következő helyhez: 51.82°É 39.23°K

Szitáló eső
Enyhe
Mérsékelt
Erős
Nagyon nehéz
Jégeső

A helyzetjelző helye: 51.82°É 39.23°K. Ez az animáció bemutatja a csapadékradart az elmúlt órára vonatkozóan, valamint előrejelzést az elkövetkező 1 órára. A szitáló eső vagy enyhe hóesés láthatatlan lehet a radar számára. A csapadék intenzitása színkóddal van jelölve, a világoskéktől a narancssárgáig.

Aktuális műholdas és esőképek ezen a helyen: 51.82°É 39.23°K

A helyszín jelölő a következő helyen van elhelyezve: 51.82°É 39.23°K. [Több]

A valós idejű műholdas kép ötvözi a nappali látható fényt az éjszakai infravörös sugárzással. Éjjel a kép nem sötét, mivel az infravörös sugárzás képes érzékelni a hőmérséklet-különbségeket. Sajnos az alacsony felhőket és a ködöt nehéz megkülönböztetni a talaj hőmérsékletétől, így az éjszaka folyamán szinte láthatatlanok lehetnek. A Meteosat európai műholdképei valós időben frissülnek minden 5 percben. A GOES-16/GOES-17 (Észak- és Dél-Amerika) és Himawari (Ázsia) képei 10 percenként frissülnek.

Minden jog fenntartva 2021 EUMETSAT / meteoblue. / Minden jog fenntartva 2021 meteoblue